• Join FlightAware (Why Join?)
  • Login
  • US Flag 
02:50AM EDT


 

Airport Tracker/Info


-or-


 

Live Flight TrackerFlight Track Log ✈ ASQ6115 ✈ 03-Jun-2013 ✈ KORD - KDAY

Flight Track Log - Related Links

Times and Time Zones

All times are in EDT time to prevent confusion due to time zone crossing. See the ASQ6115 flight status page for this flight to view local times or setup timezone preferences in your user account.

Time Position Orientation Groundspeed Altitude Reporting Facility
EDT Latitude Longitude Course Direction KTS MPH feet Rate Location/Type
11:56AM 42.0167 -87.9667 90° East 178 205 2,700  Level Chicago TRACON
11:57AM 42.0667 -88.0000 334° Northwest 242 278 4,600 1,320 Climbing Chicago TRACON
11:58AM 42.1167 -87.9333 45° Northeast 257 296 5,400 1,320 Climbing Chicago TRACON
11:59AM 41.9488 -87.3497 95° East  Level FlightAware Approximate
11:59AM 42.1544 -87.8436 60° Northeast 272 313 7,400  Level Chicago Center
12:00PM 41.9390 -87.2125 95° East  Level FlightAware Approximate
12:00PM 42.1425 -87.7394 99° East 289 333 9,500  Level Chicago Center
12:01PM 41.9333 -87.0836 90° East  Level FlightAware Approximate
12:01PM 42.1111 -87.6286 111° Southeast 314 361 11,500  Level Chicago Center
12:02PM 42.0783 -87.5172 112° Southeast 320 368 13,300 1,320 Climbing Chicago Center
12:03PM 42.0339 -87.3667 112° Southeast 358 412 14,300 960 Climbing Chicago Center
12:04PM 41.9944 -87.2319 111° Southeast 382 440 15,300 960 Climbing Chicago Center
12:05PM 41.9531 -87.0928 112° Southeast 398 458 16,400 1,080 Climbing Chicago Center
12:06PM 41.9467 -86.9419 93° East 410 472 17,600 1,020 Climbing Chicago Center
12:07PM 41.9494 -86.7903 89° East 408 470 18,600 1,080 Climbing Chicago Center
12:08PM 41.9514 -86.6150 89° East 418 481 19,900 1,080 Climbing Chicago Center
12:09PM 41.9525 -86.4533 89° East 430 495 20,900 960 Climbing Chicago Center
12:10PM 41.9556 -86.2872 89° East 444 511 21,900 900 Climbing Chicago Center
12:11PM 41.9236 -86.1242 105° East 465 535 22,800 480 Climbing Chicago Center
12:12PM 41.8336 -85.9992 134° Southeast 468 539 23,000 60 Climbing Chicago Center
12:13PM 41.7181 -85.8492 136° Southeast 483 556 23,000  Level Chicago Center
12:14PM 41.6217 -85.7247 136° Southeast 488 562 23,000  Level Chicago Center
12:15PM 41.5261 -85.6011 136° Southeast 487 560 23,000  Level Chicago Center
12:16PM 41.4331 -85.4775 135° Southeast 484 557 23,000  Level Chicago Center
12:17PM 41.3197 -85.3322 136° Southeast 479 551 23,000  Level Chicago Center
12:18PM 41.2231 -85.2092 136° Southeast 480 552 23,000 -840 Level Chicago Center
12:19PM 41.1267 -85.0858 136° Southeast 483 556 21,300 -1,800 Descending Chicago Center
12:21PM 41.0347 -84.9694 136° Southeast 469 540 19,400 -2,040 Descending Chicago Center
12:22PM 40.9469 -84.8600 137° Southeast 447 514 17,200 -2,100 Descending Chicago Center
12:23PM 40.8628 -84.7533 136° Southeast 428 493 15,100 -1,020 Descending Chicago Center
12:24PM 40.7639 -84.6300 137° Southeast 414 476 15,100 -120 Level Chicago Center
12:24PM 40.7025 -84.5558 138° Southeast 412 474 14,900 -360 Descending Indianapolis Center
12:25PM 40.6675 -84.5106 136° Southeast 412 474 14,700 -720 Descending Indianapolis Center
12:25PM 40.6217 -84.4547 137° Southeast 414 476 14,300 -960 Descending Indianapolis Center
12:26PM 40.5394 -84.3553 137° Southeast 403 464 13,300 -1,320 Descending Indianapolis Center
12:27PM 40.4422 -84.3914 196° South 350 403 11,600 -1,260 Descending Indianapolis Center
12:29PM 40.3586 -84.4378 203° Southwest 338 389 10,600 -1,380 Descending Indianapolis Center
12:29PM 40.2714 -84.4586 190° South 290 334 8,800 -1,800 Descending Indianapolis Center
12:30PM 40.2047 -84.4794 193° South 289 333 7,300 -1,740 Descending Indianapolis Center
12:31PM 40.1206 -84.5061 194° South 262 302 5,400 -1,500 Descending Indianapolis Center
12:33PM 40.0408 -84.5333 195° South 253 291 4,000 -660 Descending Indianapolis Center
12:34PM 39.9806 -84.5550 195° South 222 255 4,000  Level Indianapolis Center
12:35PM 39.9203 -84.5739 194° South 221 254 4,000 -360 Level Indianapolis Center
12:36PM 39.8669 -84.5583 167° South 214 246 3,300 -540 Descending Indianapolis Center
12:37PM 39.8200 -84.5167 146° Southeast 220 253 3,000 -180 Descending Indianapolis Center
12:38PM 39.7958 -84.4533 116° Southeast 214 246 3,000  Level Indianapolis Center